EST,Max TemperatureF,Mean TemperatureF,Min TemperatureF,Max Dew PointF,MeanDew PointF,Min DewpointF,Max Humidity, Mean Humidity, Min Humidity, Max Sea Level PressureIn, Mean Sea Level PressureIn, Min Sea Level PressureIn, Max VisibilityMiles, Mean VisibilityMiles, Min VisibilityMiles, Max Wind SpeedMPH, Mean Wind SpeedMPH, Max Gust SpeedMPH,PrecipitationIn, CloudCover, Events, WindDirDegrees
2012-1-1,78,70,61,63,60,57,93,70,52,30.27,30.22,30.18,10,10,8,10,5,,0.00,1,,82
2012-1-2,79,67,54,67,58,43,97,77,50,30.20,30.14,30.06,10,10,10,18,6,24,0.00,1,,296
2012-1-3,55,50,43,44,26,8,74,43,16,30.37,30.29,30.18,10,10,10,26,13,36,0.00,0,,324
2012-1-4,66,54,42,49,36,19,67,52,38,30.40,30.33,30.28,10,10,10,15,11,,0.00,1,,334
2012-1-5,69,58,48,41,31,11,71,42,11,30.31,30.26,30.21,10,10,10,13,7,,0.00,1,,314
2012-1-6,70,59,48,55,49,41,81,68,50,30.26,30.20,30.16,10,10,10,8,3,,0.00,1,,355
2012-1-7,73,63,53,55,53,51,93,69,46,30.22,30.17,30.14,10,10,10,9,2,,0.00,1,,125
2012-1-8,75,65,55,61,56,52,96,66,46,30.25,30.20,30.17,10,10,10,10,4,,0.00,1,,72
2012-1-9,78,74,71,65,61,60,73,66,56,30.22,30.15,30.12,10,10,10,14,10,16,0.00,4,Rain,107
2012-1-10,79,69,59,63,60,57,96,70,52,30.13,30.06,30.01,10,10,10,10,5,,0.00,1,,122
2012-1-11,75,69,63,68,65,61,93,83,71,30.00,29.91,29.84,10,10,10,21,6,30,0.00,3,Rain,214
2012-1-12,78,72,66,68,65,61,100,78,60,30.01,29.95,29.88,10,10,10,12,8,,0.00,3,,246
2012-1-13,72,68,61,66,61,55,93,78,66,30.17,30.10,30.01,10,10,10,10,4,,0.01,5,Rain,298
2012-1-14,63,58,53,50,41,30,69,54,38,30.36,30.28,30.19,10,10,10,18,13,22,0.00,4,,335
2012-1-15,70,58,45,46,37,21,63,47,21,30.44,30.38,30.35,10,10,10,16,9,21,0.00,0,,349
2012-1-16,72,64,57,57,51,42,65,57,49,30.43,30.37,30.33,10,10,10,16,12,24,0.00,6,,63
2012-1-17,77,70,63,60,58,51,84,63,51,30.32,30.25,30.19,10,10,10,15,10,,0.00,1,,134
2012-1-18,80,70,60,65,61,56,94,74,43,30.17,30.10,30.03,10,10,10,12,4,16,0.00,2,,232
2012-1-19,75,68,57,63,57,51,96,72,45,30.16,30.10,30.02,10,10,10,17,10,25,0.00,1,,342
2012-1-20,75,65,55,57,55,52,93,65,48,30.22,30.17,30.13,10,10,10,13,5,,0.00,1,,93
2012-1-21,78,72,66,64,59,56,87,64,53,30.18,30.12,30.07,10,10,10,15,8,21,0.00,3,,151
2012-1-22,80,70,60,68,61,55,90,72,50,30.15,30.12,30.08,10,10,10,12,5,,0.00,3,,49
2012-1-23,78,75,72,68,66,63,83,75,60,30.15,30.11,30.09,10,10,10,14,9,21,0.00,3,,122
2012-1-24,80,76,72,68,66,66,82,75,62,30.19,30.15,30.11,10,10,10,15,10,,0.00,1,,119
2012-1-25,79,76,72,67,66,65,81,74,64,30.20,30.15,30.11,10,10,10,14,10,,0.00,2,,108
2012-1-26,80,76,73,71,68,66,87,77,64,30.14,30.07,30.02,10,10,10,16,13,23,0.01,3,Rain,139
2012-1-27,84,78,72,71,69,66,91,76,55,30.08,30.03,29.97,10,10,10,16,11,23,0.00,3,,193
2012-1-28,78,72,66,70,67,65,94,82,66,30.17,30.11,30.07,10,10,10,10,4,,0.00,4,,21
2012-1-29,77,73,69,68,64,59,90,75,64,30.25,30.18,30.12,10,10,10,16,7,22,0.00,7,,9
2012-1-30,77,74,71,61,59,57,68,62,54,30.32,30.27,30.22,10,10,10,18,14,26,0.00,4,,57
2012-1-31,77,74,70,65,62,57,76,68,60,30.32,30.27,30.24,10,10,10,17,13,25,0.00,5,,69